createdAt,value
2022-10-04T00:04:35.276Z,13.89
2022-10-04T00:10:04.451Z,13.91
2022-10-04T00:15:34.931Z,13.93
2022-10-04T00:20:59.255Z,13.94
2022-10-04T00:26:22.889Z,13.85
2022-10-04T00:32:11.618Z,13.83
2022-10-04T00:38:21.446Z,13.85
2022-10-04T00:43:48.294Z,13.76
2022-10-04T00:49:12.397Z,13.80
2022-10-04T00:54:41.438Z,13.71
2022-10-04T01:00:07.483Z,13.69
2022-10-04T01:05:41.921Z,13.65
2022-10-04T01:11:18.007Z,13.62
2022-10-04T01:16:38.760Z,13.63
2022-10-04T01:22:05.187Z,13.59
2022-10-04T01:27:35.543Z,13.55
2022-10-04T01:32:56.054Z,13.57
2022-10-04T01:38:17.543Z,13.57
2022-10-04T01:43:43.682Z,13.55
2022-10-04T01:49:09.974Z,13.53
2022-10-04T01:54:36.382Z,13.51
2022-10-04T02:00:08.301Z,13.60
2022-10-04T02:05:38.420Z,13.64
2022-10-04T02:11:00.966Z,13.65
2022-10-04T02:16:22.784Z,13.71
2022-10-04T02:21:44.603Z,13.83
2022-10-04T02:27:06.278Z,13.97
2022-10-04T02:32:48.099Z,14.05
2022-10-04T02:38:22.158Z,14.07
2022-10-04T02:43:53.529Z,14.10
2022-10-04T02:49:29.843Z,14.20
2022-10-04T02:55:07.115Z,14.24
2022-10-04T03:00:31.950Z,14.29
2022-10-04T03:06:06.439Z,14.31
2022-10-04T03:11:35.507Z,14.32
2022-10-04T03:17:00.664Z,14.33
2022-10-04T03:22:23.270Z,14.29
2022-10-04T03:27:44.582Z,14.24
2022-10-04T03:33:05.830Z,14.21
2022-10-04T03:38:27.730Z,14.17
2022-10-04T03:43:50.255Z,14.14
2022-10-04T03:49:17.357Z,14.14
2022-10-04T03:54:38.218Z,14.10
2022-10-04T03:59:59.515Z,14.09
2022-10-04T04:05:25.594Z,14.10
2022-10-04T04:10:50.453Z,14.16
2022-10-04T04:16:11.604Z,14.17
2022-10-04T04:21:32.985Z,14.21
2022-10-04T04:26:58.004Z,14.24
2022-10-04T04:32:24.241Z,14.29
2022-10-04T04:37:44.827Z,14.30
2022-10-04T04:43:05.834Z,14.33
2022-10-04T04:48:26.556Z,14.30
2022-10-04T04:53:48.312Z,14.23
2022-10-04T04:59:09.247Z,14.17
2022-10-04T05:04:31.409Z,14.13
2022-10-04T05:09:52.158Z,14.13
2022-10-04T05:15:12.961Z,14.15
2022-10-04T05:20:34.880Z,14.22
2022-10-04T05:25:55.989Z,14.21
2022-10-04T05:31:27.659Z,14.13
2022-10-04T05:37:04.024Z,14.16
2022-10-04T05:42:45.218Z,14.14
2022-10-04T05:48:09.030Z,14.18
2022-10-04T05:53:33.101Z,14.16
2022-10-04T05:59:12.939Z,14.21
2022-10-04T06:05:09.538Z,14.11
2022-10-04T06:10:52.463Z,14.16
2022-10-04T06:16:35.007Z,14.18
2022-10-04T06:22:12.968Z,14.24
2022-10-04T06:27:41.575Z,14.34
2022-10-04T06:33:27.270Z,14.42
2022-10-04T06:39:07.295Z,14.43
2022-10-04T06:44:44.367Z,14.49
2022-10-04T06:50:49.931Z,14.51
2022-10-04T06:56:27.647Z,14.54
2022-10-04T07:01:51.237Z,14.55
2022-10-04T07:07:37.656Z,14.57
2022-10-04T07:13:04.136Z,14.56
2022-10-04T07:18:37.721Z,14.58
2022-10-04T07:24:03.872Z,14.62
2022-10-04T07:29:28.844Z,14.60
2022-10-04T07:35:16.845Z,14.56
2022-10-04T07:40:40.891Z,14.54
2022-10-04T07:46:37.664Z,14.64
2022-10-04T07:52:27.736Z,14.76
2022-10-04T07:58:25.149Z,14.90
2022-10-04T08:03:58.529Z,15.02
2022-10-04T08:09:38.040Z,15.12
2022-10-04T08:15:13.615Z,15.07
2022-10-04T08:21:00.335Z,14.97
2022-10-04T08:26:40.419Z,14.97
2022-10-04T08:32:20.251Z,15.31
2022-10-04T08:37:59.643Z,15.86
2022-10-04T08:43:49.473Z,16.21
2022-10-04T08:49:31.597Z,16.21
2022-10-04T08:55:34.958Z,15.98
2022-10-04T09:01:27.729Z,16.24
2022-10-04T09:07:09.944Z,16.48
2022-10-04T09:12:59.892Z,16.36
2022-10-04T09:18:46.250Z,16.41
2022-10-04T09:24:32.315Z,16.80
2022-10-04T09:30:18.839Z,17.32
2022-10-04T09:36:09.846Z,17.49
2022-10-04T09:41:58.396Z,17.81
2022-10-04T09:47:45.277Z,17.63
2022-10-04T09:53:35.666Z,17.63
2022-10-04T09:59:32.324Z,18.20
2022-10-04T10:05:36.205Z,18.60
2022-10-04T10:11:45.842Z,19.13
2022-10-04T10:17:20.586Z,20.04
2022-10-04T10:23:02.838Z,20.21
2022-10-04T10:28:47.719Z,20.95
2022-10-04T10:34:26.602Z,19.39
2022-10-04T10:40:28.905Z,23.05
2022-10-04T10:46:03.823Z,29.04
2022-10-04T10:51:35.954Z,29.24
2022-10-04T10:57:14.851Z,32.16
2022-10-04T11:03:21.823Z,32.85
2022-10-04T11:09:28.470Z,34.18
2022-10-04T11:15:14.402Z,36.97
2022-10-04T11:21:03.563Z,35.93
2022-10-04T11:26:52.019Z,35.56
2022-10-04T11:32:30.855Z,34.45
2022-10-04T11:38:14.764Z,35.62
2022-10-04T11:43:57.190Z,36.39
2022-10-04T11:49:25.899Z,35.85
2022-10-04T11:54:58.595Z,35.20
2022-10-04T12:00:25.415Z,36.28
2022-10-04T12:06:14.978Z,35.26
2022-10-04T12:12:13.815Z,38.49
2022-10-04T12:18:07.187Z,37.40
2022-10-04T12:24:07.429Z,31.22
2022-10-04T12:29:44.770Z,32.45
2022-10-04T12:35:14.695Z,35.75
2022-10-04T12:40:42.088Z,37.40
2022-10-04T12:46:19.041Z,33.64
2022-10-04T12:51:47.892Z,28.11
2022-10-04T12:57:26.801Z,28.14
2022-10-04T13:02:58.203Z,29.15
2022-10-04T13:08:43.416Z,25.42
2022-10-04T13:14:29.204Z,22.69
2022-10-04T13:20:29.747Z,24.79
2022-10-04T13:26:15.631Z,28.35
2022-10-04T13:31:49.553Z,30.35
2022-10-04T13:37:20.484Z,31.34
2022-10-04T13:43:09.023Z,28.31
2022-10-04T13:48:34.646Z,24.75
2022-10-04T13:54:40.313Z,21.37
2022-10-04T14:00:15.070Z,19.49
2022-10-04T14:06:12.357Z,18.51
2022-10-04T14:12:12.283Z,17.88
2022-10-04T14:18:19.814Z,17.30
2022-10-04T14:24:10.745Z,17.41
2022-10-04T14:29:34.335Z,17.04
2022-10-04T14:34:56.932Z,16.89
2022-10-04T14:40:31.017Z,16.70
2022-10-04T14:46:19.072Z,16.51
2022-10-04T14:52:19.823Z,16.35
2022-10-04T14:57:58.964Z,16.26
2022-10-04T15:03:34.200Z,15.98
2022-10-04T15:09:09.234Z,16.01
2022-10-04T15:14:36.750Z,15.91
2022-10-04T15:20:22.900Z,15.79
2022-10-04T15:25:51.926Z,15.63
2022-10-04T15:31:30.474Z,15.67
2022-10-04T15:37:19.960Z,15.49
2022-10-04T15:43:06.002Z,15.36
2022-10-04T15:48:55.948Z,15.20
2022-10-04T15:54:22.141Z,15.05
2022-10-04T15:59:53.590Z,14.98
2022-10-04T16:05:37.562Z,14.97
2022-10-04T16:11:34.255Z,14.98
2022-10-04T16:17:22.368Z,14.98
2022-10-04T16:23:23.971Z,14.96
2022-10-04T16:28:53.263Z,14.95
2022-10-04T16:34:48.035Z,14.88
2022-10-04T16:40:27.042Z,14.83
2022-10-04T16:45:53.428Z,14.86
2022-10-04T16:51:16.714Z,14.78
2022-10-04T16:56:58.139Z,14.84
2022-10-04T17:02:36.923Z,14.86
2022-10-04T17:08:17.464Z,14.86
2022-10-04T17:14:16.265Z,14.88
2022-10-04T17:19:48.041Z,14.90
2022-10-04T17:25:42.749Z,14.93
2022-10-04T17:31:06.098Z,14.94
2022-10-04T17:36:37.544Z,14.97
2022-10-04T17:42:07.778Z,15.02
2022-10-04T17:47:57.328Z,15.01
2022-10-04T17:53:44.801Z,15.07
2022-10-04T17:59:18.130Z,15.06
2022-10-04T18:04:49.342Z,15.12
2022-10-04T18:10:31.392Z,15.16
2022-10-04T18:16:17.696Z,15.14
2022-10-04T18:21:48.854Z,15.15
2022-10-04T18:27:18.760Z,15.20
2022-10-04T18:32:40.073Z,15.20
2022-10-04T18:38:21.627Z,15.19
2022-10-04T18:43:51.554Z,15.20
2022-10-04T18:49:25.407Z,15.23
2022-10-04T18:54:57.909Z,15.22
2022-10-04T19:00:37.366Z,15.21
2022-10-04T19:06:06.317Z,15.20
2022-10-04T19:11:50.891Z,15.23
2022-10-04T19:17:29.437Z,15.21
2022-10-04T19:23:04.684Z,15.18
2022-10-04T19:28:32.468Z,15.20
2022-10-04T19:34:05.176Z,15.20
2022-10-04T19:39:50.808Z,15.20
2022-10-04T19:53:20.084Z,15.21
2022-10-04T19:58:46.739Z,15.23
2022-10-04T20:04:33.851Z,15.19
2022-10-04T20:10:23.087Z,15.25
2022-10-04T20:15:47.351Z,15.29
2022-10-04T20:21:12.646Z,15.28
2022-10-04T20:27:01.164Z,15.21
2022-10-04T20:32:44.601Z,15.15
2022-10-04T20:38:30.516Z,14.96
2022-10-04T20:43:57.442Z,14.90
2022-10-04T20:49:18.658Z,14.90
2022-10-04T20:54:49.405Z,14.88
2022-10-04T21:00:18.642Z,14.86
2022-10-04T21:05:39.496Z,14.88
2022-10-04T21:11:13.243Z,14.91
2022-10-04T21:16:42.883Z,14.94
2022-10-04T21:22:05.219Z,15.03
2022-10-04T21:27:34.126Z,15.09
2022-10-04T21:32:54.436Z,15.12
2022-10-04T21:38:15.161Z,15.09
2022-10-04T21:43:35.550Z,15.10
2022-10-04T21:48:56.280Z,15.09
2022-10-04T21:54:16.703Z,15.08
2022-10-04T21:59:37.509Z,15.13
2022-10-04T22:04:58.009Z,15.13
2022-10-04T22:10:18.775Z,15.11
2022-10-04T22:15:40.516Z,15.05
2022-10-04T22:21:01.039Z,15.07
2022-10-04T22:26:22.875Z,15.09
2022-10-04T22:31:49.063Z,15.11
2022-10-04T22:37:13.057Z,15.10
2022-10-04T22:42:33.978Z,15.15
2022-10-04T22:47:57.886Z,15.15
2022-10-04T22:53:21.698Z,15.14
2022-10-04T22:58:42.628Z,15.19
2022-10-04T23:04:04.389Z,15.20
2022-10-04T23:09:25.174Z,15.24
2022-10-04T23:14:45.963Z,15.22
2022-10-04T23:20:13.511Z,15.21
2022-10-04T23:25:34.786Z,15.24
2022-10-04T23:31:04.940Z,15.22
2022-10-04T23:36:25.321Z,15.25
2022-10-04T23:41:45.769Z,15.29
2022-10-04T23:47:14.974Z,15.31
2022-10-04T23:52:38.989Z,15.35
2022-10-04T23:58:00.218Z,15.32
